Williston, ND

1:13 AM CDT on April 21, 2015 (GMT -0500)
Sloulin International | | Change Station
CLOSE
Current Station
Airport
Location: Williston,
Elevation: 1906 ft
Nearby Weather Stations

Elev 1906 ft 48.17 °N, 103.64 °W | Updated 21 minutes ago

Partly Cloudy
Partly Cloudy
36 °F
Feels Like 30 °F
N
8
Wind Variable Wind from NNE

Today
High -- | Low -- °F
--% Chance of Precip.
Yesterday
High -- | Low -- °F
Precip. -- in
6:53 AM 8:53 PM
Waxing Crescent, 8% visible
Pressure 29.87 in
Visibility 10.0 miles
Clouds Scattered Clouds 5500 ft
Mostly Cloudy 7000 ft
Overcast 9500 ft
Windchill 30 °F
Dew Point 18 °F
Humidity 48%
Rainfall 0.00 in
Snow Depth Not available.
UV 0 out of 12
Pollen 8.80 out of 12
Air Quality Not available.
Flu Activity Regional
METAR KISN 210552Z AUTO 03007KT 10SM SCT055 BKN070 OVC095 02/M08 A2983 RMK AO2 SLP115 T00221078 10117 21028 401331056 53007

More Conditions Fewer Conditions

Pressure 29.87 in
Visibility 10.0 miles
Clouds Scattered Clouds 5500 ft
Mostly Cloudy 7000 ft
Overcast 9500 ft
Windchill 30 °F
Dew Point 18 °F
Humidity 48%
Rainfall 0.00 in
Snow Depth Not available.
UV 0 out of 12
Pollen 8.80 out of 12
Air Quality Not available.
Flu Activity Regional
METAR KISN 210552Z AUTO 03007KT 10SM SCT055 BKN070 OVC095 02/M08 A2983 RMK AO2 SLP115 T00221078 10117 21028 401331056 53007

More Conditions Fewer Conditions

10-Day Weather Forecast

Almanac

Astronomy

Apr. 21, 2015 Rise Set
Actual Time
Civil Twilight
Nautical Twilight
Astronomical Twilight
Moon
Length of Visible Light
Length of Day
Tomorrow will be .
, % of the Moon is Illuminated

Today's Extremes

State Highs State Lows

Community

WunderPhotos

Upload Photos

1,815,317 photos uploaded!

WunderBlogs® & News

Nearby

Air Quality

  Air Quality AQ Index Pollutant
Not available.

Snow Depth

Station Depth Elevation

Earthquake Activity

City Distance Mag. Time & Date
Minimum magnitude displayed is 2.5.

Coastal Water Temperatures

Place Temperature

Stations

Nearby Weather Stations

Station Location Temp. Windchill Dew Point Humidity Wind Precip. Elev Updated Type